Time;durP1;ratioP1;P1;durP2;ratioP2;P2;SDS_P1;SDS_P2;PMS_P1;PMS_P2;Temp;Humidity;BMP_temperature;BMP_pressure;BME280_temperature;BME280_humidity;BME280_pressure;Samples;Min_cycle;Max_cycle;Signal;HPM_P1;HPM_P2
2021/08/05 00:01:06;;;;;;;0.10;0.10;;;;;;;;;;6194190;23;20012;-90
2021/08/05 00:03:33;;;;;;;0.10;0.10;;;;;;;;;;6194173;23;20019;-89
2021/08/05 00:05:59;;;;;;;0.10;0.10;;;;;;;;;;6169046;23;20017;-89
2021/08/05 00:08:25;;;;;;;0.10;0.10;;;;;;;;;;6194028;23;20087;-88
2021/08/05 00:10:51;;;;;;;0.10;0.10;;;;;;;;;;6193843;23;20028;-89
2021/08/05 00:13:16;;;;;;;0.10;0.10;;;;;;;;;;6193767;23;20087;-89
2021/08/05 00:15:43;;;;;;;0.10;0.10;;;;;;;;;;6219210;23;20087;-90
2021/08/05 00:18:09;;;;;;;0.10;0.10;;;;;;;;;;6194231;23;20062;-89
2021/08/05 00:20:35;;;;;;;0.10;0.10;;;;;;;;;;6193628;23;20016;-88
2021/08/05 00:23:01;;;;;;;0.10;0.10;;;;;;;;;;6219097;23;20438;-88
2021/08/05 00:25:27;;;;;;;0.10;0.10;;;;;;;;;;6193823;23;20046;-89
2021/08/05 00:27:53;;;;;;;0.10;0.10;;;;;;;;;;6193509;23;20050;-89
2021/08/05 00:30:19;;;;;;;0.10;0.10;;;;;;;;;;6193815;23;20020;-89
2021/08/05 00:32:45;;;;;;;0.10;0.10;;;;;;;;;;6193557;23;20012;-89
2021/08/05 00:35:11;;;;;;;0.10;0.10;;;;;;;;;;6218449;23;20350;-88
2021/08/05 00:37:37;;;;;;;0.10;0.10;;;;;;;;;;6218368;23;20004;-87
2021/08/05 00:40:04;;;;;;;0.10;0.10;;;;;;;;;;6194108;23;20015;-88
2021/08/05 00:42:30;;;;;;;0.10;0.10;;;;;;;;;;6218559;23;20030;-88
2021/08/05 00:44:56;;;;;;;0.10;0.10;;;;;;;;;;6218525;23;20020;-89
2021/08/05 00:47:22;;;;;;;0.10;0.10;;;;;;;;;;6193659;23;20015;-89
2021/08/05 00:49:48;;;;;;;0.30;0.30;;;;;;;;;;6193712;23;20032;-88
2021/08/05 00:52:14;;;;;;;0.10;0.10;;;;;;;;;;6218823;23;20016;-88
2021/08/05 00:54:40;;;;;;;0.20;0.20;;;;;;;;;;6193595;23;20016;-88
2021/08/05 00:57:08;;;;;;;0.10;0.10;;;;;;;;;;6218602;23;20016;-89
2021/08/05 00:59:34;;;;;;;0.10;0.10;;;;;;;;;;6193524;23;20008;-89
2021/08/05 01:02:13;;;;;;;0.10;0.10;;;;;;;;;;6193239;23;20023;-89
2021/08/05 01:04:40;;;;;;;0.10;0.10;;;;;;;;;;6218554;23;20016;-89
2021/08/05 01:07:12;;;;;;;0.10;0.10;;;;;;;;;;6218991;23;20083;-89
2021/08/05 01:09:57;;;;;;;0.10;0.10;;;;;;;;;;6218490;23;20086;-89
2021/08/05 01:12:27;;;;;;;0.38;0.30;;;;;;;;;;6218563;23;20008;-89
2021/08/05 01:14:57;;;;;;;0.10;0.10;;;;;;;;;;6168587;23;20012;-89
2021/08/05 01:17:23;;;;;;;0.10;0.10;;;;;;;;;;6218418;23;20062;-89
2021/08/05 01:19:51;;;;;;;0.10;0.10;;;;;;;;;;6193860;23;20008;-89
2021/08/05 01:22:36;;;;;;;0.10;0.10;;;;;;;;;;6245065;23;20079;-89
2021/08/05 01:25:04;;;;;;;0.10;0.10;;;;;;;;;;6218215;23;20016;-89
2021/08/05 01:27:30;;;;;;;0.10;0.10;;;;;;;;;;6218425;23;20013;-90
2021/08/05 01:29:56;;;;;;;0.10;0.10;;;;;;;;;;6193137;23;20025;-89
2021/08/05 01:32:22;;;;;;;0.10;0.10;;;;;;;;;;6218727;23;20090;-89
2021/08/05 01:34:48;;;;;;;0.10;0.10;;;;;;;;;;6192935;23;20069;-88
2021/08/05 01:37:14;;;;;;;0.10;0.10;;;;;;;;;;6193148;23;20034;-88
2021/08/05 01:39:40;;;;;;;0.10;0.10;;;;;;;;;;6193212;23;20016;-88
2021/08/05 01:42:07;;;;;;;0.10;0.10;;;;;;;;;;6218463;23;20012;-89
2021/08/05 01:44:33;;;;;;;0.10;0.10;;;;;;;;;;6218333;23;20446;-89
2021/08/05 01:46:59;;;;;;;0.10;0.10;;;;;;;;;;6218024;23;20755;-89
2021/08/05 01:49:25;;;;;;;0.20;0.20;;;;;;;;;;6218302;23;20044;-87
2021/08/05 01:51:51;;;;;;;0.10;0.10;;;;;;;;;;6193374;23;20035;-88
2021/08/05 01:54:17;;;;;;;0.10;0.10;;;;;;;;;;6192954;23;20091;-88
2021/08/05 01:56:43;;;;;;;0.10;0.10;;;;;;;;;;6218069;23;20012;-88
2021/08/05 01:59:11;;;;;;;0.10;0.10;;;;;;;;;;6193690;23;20016;-88
2021/08/05 02:01:37;;;;;;;0.10;0.10;;;;;;;;;;6193542;23;20446;-89
2021/08/05 02:04:03;;;;;;;0.10;0.10;;;;;;;;;;6217793;23;20016;-89
2021/08/05 02:06:29;;;;;;;0.10;0.10;;;;;;;;;;6245286;23;20015;-89
2021/08/05 02:09:03;;;;;;;0.10;0.10;;;;;;;;;;6220109;23;20069;-88
2021/08/05 02:11:35;;;;;;;0.10;0.10;;;;;;;;;;6220054;23;20083;-88
2021/08/05 02:14:02;;;;;;;0.10;0.10;;;;;;;;;;6246669;23;20020;-89
2021/08/05 02:16:28;;;;;;;0.10;0.10;;;;;;;;;;6220265;23;20081;-89
2021/08/05 02:18:54;;;;;;;0.10;0.10;;;;;;;;;;6220362;23;20449;-89
2021/08/05 02:21:21;;;;;;;0.10;0.10;;;;;;;;;;6194947;23;20008;-89
2021/08/05 02:23:47;;;;;;;0.10;0.10;;;;;;;;;;6194734;23;20036;-89
2021/08/05 02:26:13;;;;;;;0.10;0.10;;;;;;;;;;6194839;23;20046;-90
2021/08/05 02:28:39;;;;;;;0.10;0.10;;;;;;;;;;6194803;23;20142;-89
2021/08/05 02:31:07;;;;;;;0.10;0.10;;;;;;;;;;6194663;23;20176;-89
2021/08/05 02:33:33;;;;;;;0.20;0.20;;;;;;;;;;6195282;23;20156;-89
2021/08/05 02:35:59;;;;;;;0.10;0.10;;;;;;;;;;6194881;23;20196;-89
2021/08/05 02:38:25;;;;;;;0.10;0.10;;;;;;;;;;6246548;23;20088;-88
2021/08/05 02:40:51;;;;;;;0.10;0.10;;;;;;;;;;6194794;23;20088;-89
2021/08/05 02:43:18;;;;;;;0.10;0.10;;;;;;;;;;6219969;23;20016;-88
2021/08/05 02:45:44;;;;;;;0.10;0.10;;;;;;;;;;6194483;23;20086;-89
2021/08/05 02:48:10;;;;;;;0.10;0.10;;;;;;;;;;6194954;23;20079;-89
2021/08/05 02:50:36;;;;;;;0.10;0.10;;;;;;;;;;6194334;23;20051;-87
2021/08/05 02:53:02;;;;;;;0.10;0.10;;;;;;;;;;6194271;23;20438;-87
2021/08/05 02:55:28;;;;;;;0.10;0.10;;;;;;;;;;6219740;23;20016;-87
2021/08/05 02:57:54;;;;;;;0.10;0.10;;;;;;;;;;6219649;23;20012;-88
2021/08/05 03:00:21;;;;;;;0.10;0.10;;;;;;;;;;6194686;23;20078;-88
2021/08/05 03:02:48;;;;;;;0.10;0.10;;;;;;;;;;6245960;23;20012;-87
2021/08/05 03:05:14;;;;;;;0.22;0.20;;;;;;;;;;6219304;23;20047;-88
2021/08/05 03:07:40;;;;;;;0.10;0.10;;;;;;;;;;6219420;23;20069;-88
2021/08/05 03:10:06;;;;;;;0.10;0.10;;;;;;;;;;6219664;23;20083;-88
2021/08/05 03:12:32;;;;;;;0.10;0.10;;;;;;;;;;6194396;23;20015;-87
2021/08/05 03:14:59;;;;;;;0.10;0.10;;;;;;;;;;6193743;23;20016;-88
2021/08/05 03:17:25;;;;;;;0.10;0.10;;;;;;;;;;6194376;23;20012;-88
2021/08/05 03:19:51;;;;;;;0.10;0.10;;;;;;;;;;6194539;23;20465;-88
2021/08/05 03:22:17;;;;;;;0.10;0.10;;;;;;;;;;6194143;23;20034;-88
2021/08/05 03:24:43;;;;;;;0.10;0.10;;;;;;;;;;6194200;23;20019;-87
2021/08/05 03:27:09;;;;;;;0.10;0.10;;;;;;;;;;6219359;23;20016;-88
2021/08/05 03:29:35;;;;;;;0.10;0.10;;;;;;;;;;6194054;23;20239;-88
2021/08/05 03:32:01;;;;;;;0.10;0.10;;;;;;;;;;6194081;23;20016;-87
2021/08/05 03:34:27;;;;;;;0.10;0.10;;;;;;;;;;6194194;23;20099;-88
2021/08/05 03:36:53;;;;;;;0.10;0.10;;;;;;;;;;6194221;23;20016;-88
2021/08/05 03:39:19;;;;;;;0.10;0.10;;;;;;;;;;6218897;23;20012;-88
2021/08/05 03:41:46;;;;;;;0.10;0.10;;;;;;;;;;6194326;23;20008;-87
2021/08/05 03:44:12;;;;;;;0.10;0.10;;;;;;;;;;6218977;23;20142;-87
2021/08/05 03:46:38;;;;;;;0.10;0.10;;;;;;;;;;6219112;23;20012;-88
2021/08/05 03:49:04;;;;;;;0.10;0.10;;;;;;;;;;6219527;23;20012;-88
2021/08/05 03:51:30;;;;;;;0.10;0.10;;;;;;;;;;6219282;23;20012;-88
2021/08/05 03:53:56;;;;;;;0.10;0.10;;;;;;;;;;6194146;23;20050;-88
2021/08/05 03:56:22;;;;;;;0.10;0.10;;;;;;;;;;6218977;23;20012;-88
2021/08/05 03:58:48;;;;;;;0.10;0.10;;;;;;;;;;6194067;23;20008;-88
2021/08/05 04:01:15;;;;;;;0.10;0.10;;;;;;;;;;6194665;23;20020;-88
2021/08/05 04:03:42;;;;;;;0.10;0.10;;;;;;;;;;6218923;23;20020;-88
2021/08/05 04:06:08;;;;;;;0.10;0.10;;;;;;;;;;6194032;23;20061;-88
2021/08/05 04:08:36;;;;;;;0.10;0.10;;;;;;;;;;6194019;23;20012;-89
2021/08/05 04:11:02;;;;;;;0.10;0.10;;;;;;;;;;6193966;23;20040;-89
2021/08/05 04:13:28;;;;;;;0.10;0.10;;;;;;;;;;6193740;23;20016;-88
2021/08/05 04:15:54;;;;;;;0.10;0.10;;;;;;;;;;6218963;23;20018;-89
2021/08/05 04:18:20;;;;;;;0.10;0.10;;;;;;;;;;6218964;23;20518;-88
2021/08/05 04:20:46;;;;;;;0.20;0.20;;;;;;;;;;6219208;23;20434;-89
2021/08/05 04:23:12;;;;;;;0.20;0.20;;;;;;;;;;6219127;23;20023;-89
2021/08/05 04:25:38;;;;;;;0.20;0.20;;;;;;;;;;6218923;23;20023;-89
2021/08/05 04:28:04;;;;;;;0.10;0.10;;;;;;;;;;6193418;23;20039;-89
2021/08/05 04:30:31;;;;;;;0.10;0.10;;;;;;;;;;6219045;23;20012;-88
2021/08/05 04:32:57;;;;;;;0.20;0.20;;;;;;;;;;6218746;23;20008;-88
2021/08/05 04:35:23;;;;;;;0.10;0.10;;;;;;;;;;6219646;23;20016;-87
2021/08/05 04:37:56;;;;;;;0.10;0.10;;;;;;;;;;6193395;23;20012;-88
2021/08/05 04:40:22;;;;;;;0.10;0.10;;;;;;;;;;6193664;23;20008;-88
2021/08/05 04:42:48;;;;;;;0.10;0.10;;;;;;;;;;6218915;23;20362;-89
2021/08/05 04:45:14;;;;;;;0.10;0.10;;;;;;;;;;6193063;23;20024;-88
2021/08/05 04:47:57;;;;;;;0.10;0.10;;;;;;;;;;6193658;23;20469;-87
2021/08/05 04:50:25;;;;;;;0.10;0.10;;;;;;;;;;6193486;23;20074;-88
2021/08/05 04:52:51;;;;;;;0.10;0.10;;;;;;;;;;6193273;23;20043;-89
2021/08/05 04:55:17;;;;;;;0.10;0.10;;;;;;;;;;6218824;23;20019;-88
2021/08/05 04:57:48;;;;;;;0.13;0.13;;;;;;;;;;6219062;23;20012;-87
2021/08/05 05:00:19;;;;;;;0.10;0.10;;;;;;;;;;6194061;23;20016;-95
2021/08/05 05:02:47;;;;;;;0.10;0.10;;;;;;;;;;6229343;23;20062;-91
2021/08/05 05:05:13;;;;;;;0.20;0.20;;;;;;;;;;6168741;23;20012;-90
2021/08/05 05:07:41;;;;;;;0.10;0.10;;;;;;;;;;6170297;23;20016;-90
2021/08/05 05:10:08;;;;;;;0.20;0.20;;;;;;;;;;6219235;23;20012;-91
2021/08/05 05:12:34;;;;;;;0.10;0.10;;;;;;;;;;6193942;23;20012;-90
2021/08/05 05:15:00;;;;;;;0.20;0.20;;;;;;;;;;6193806;23;20036;-90
2021/08/05 05:17:27;;;;;;;0.10;0.10;;;;;;;;;;6194435;23;20402;-91
2021/08/05 05:19:54;;;;;;;0.47;0.47;;;;;;;;;;6193997;23;20062;-90
2021/08/05 05:22:20;;;;;;;0.10;0.10;;;;;;;;;;6193674;23;20008;-90
2021/08/05 05:24:46;;;;;;;0.20;0.20;;;;;;;;;;6193563;23;20381;-90
2021/08/05 05:27:12;;;;;;;0.10;0.10;;;;;;;;;;6193579;23;20038;-90
2021/08/05 05:29:40;;;;;;;0.20;0.20;;;;;;;;;;6168605;23;20099;-89
2021/08/05 05:32:06;;;;;;;0.10;0.10;;;;;;;;;;6193964;23;20090;-92
2021/08/05 05:34:36;;;;;;;0.10;0.10;;;;;;;;;;6170379;23;20016;-91
2021/08/05 05:37:02;;;;;;;0.20;0.20;;;;;;;;;;6168340;23;20020;-91
2021/08/05 05:39:29;;;;;;;0.20;0.20;;;;;;;;;;6169285;23;20016;-91
2021/08/05 05:41:56;;;;;;;0.10;0.10;;;;;;;;;;6195610;23;20009;-91
2021/08/05 05:44:22;;;;;;;0.30;0.30;;;;;;;;;;6195784;23;20081;-91
2021/08/05 05:46:48;;;;;;;0.10;0.10;;;;;;;;;;6195474;23;20462;-92
2021/08/05 05:49:14;;;;;;;0.10;0.10;;;;;;;;;;6195882;23;20004;-92
2021/08/05 05:51:40;;;;;;;0.10;0.10;;;;;;;;;;6171000;23;20012;-93
2021/08/05 05:54:06;;;;;;;0.10;0.10;;;;;;;;;;6195359;23;20024;-91
2021/08/05 05:56:33;;;;;;;0.15;0.15;;;;;;;;;;6199333;23;20008;-91
2021/08/05 05:59:00;;;;;;;0.10;0.10;;;;;;;;;;6220896;23;20008;-91
2021/08/05 06:01:26;;;;;;;0.32;0.20;;;;;;;;;;6170380;23;20502;-91
2021/08/05 06:03:52;;;;;;;0.10;0.10;;;;;;;;;;6195646;23;20050;-90
2021/08/05 06:06:19;;;;;;;0.10;0.10;;;;;;;;;;6195497;23;20087;-91
2021/08/05 06:08:45;;;;;;;0.10;0.10;;;;;;;;;;6195093;23;20035;-92
2021/08/05 06:11:11;;;;;;;0.20;0.20;;;;;;;;;;6170707;23;20460;-90
2021/08/05 06:13:37;;;;;;;0.10;0.10;;;;;;;;;;6221195;23;20015;-92
2021/08/05 06:16:03;;;;;;;0.10;0.10;;;;;;;;;;6195640;23;20051;-92
2021/08/05 06:18:29;;;;;;;0.10;0.10;;;;;;;;;;6195813;23;20012;-93
2021/08/05 06:20:55;;;;;;;0.17;0.17;;;;;;;;;;6195780;23;20034;-91
2021/08/05 06:23:25;;;;;;;0.10;0.10;;;;;;;;;;6196630;23;20043;-90
2021/08/05 06:25:51;;;;;;;0.10;0.10;;;;;;;;;;6221574;23;20385;-89
2021/08/05 06:28:17;;;;;;;0.65;0.65;;;;;;;;;;6197380;23;20411;-89
2021/08/05 06:30:43;;;;;;;0.10;0.10;;;;;;;;;;6220023;23;20012;-91
2021/08/05 06:33:09;;;;;;;0.10;0.10;;;;;;;;;;6195047;23;20012;-90
2021/08/05 06:35:36;;;;;;;0.10;0.10;;;;;;;;;;6219928;23;20389;-91
2021/08/05 06:38:02;;;;;;;0.20;0.20;;;;;;;;;;6194840;23;20039;-91
2021/08/05 06:40:28;;;;;;;0.20;0.20;;;;;;;;;;6195332;23;20040;-89
2021/08/05 06:42:54;;;;;;;1.63;0.60;;;;;;;;;;6195221;23;20008;-90
2021/08/05 06:45:21;;;;;;;0.10;0.10;;;;;;;;;;6194499;23;20087;-90
2021/08/05 06:47:47;;;;;;;0.10;0.10;;;;;;;;;;6194965;23;20349;-91
2021/08/05 06:50:13;;;;;;;0.10;0.10;;;;;;;;;;6194679;23;20013;-90
2021/08/05 06:52:39;;;;;;;0.10;0.10;;;;;;;;;;6193797;23;20009;-91
2021/08/05 06:55:05;;;;;;;0.10;0.10;;;;;;;;;;6169724;23;20016;-90
2021/08/05 06:57:31;;;;;;;0.10;0.10;;;;;;;;;;6219843;23;20030;-91
2021/08/05 06:59:58;;;;;;;0.20;0.20;;;;;;;;;;6194798;23;20009;-91
2021/08/05 07:02:25;;;;;;;0.10;0.10;;;;;;;;;;6194865;23;20471;-94
2021/08/05 07:04:53;;;;;;;0.20;0.20;;;;;;;;;;6195530;23;20379;-93
2021/08/05 07:07:19;;;;;;;0.30;0.30;;;;;;;;;;6196563;23;20004;-88
2021/08/05 07:09:46;;;;;;;0.10;0.10;;;;;;;;;;6219340;23;20008;-91
2021/08/05 07:12:12;;;;;;;0.20;0.20;;;;;;;;;;6219922;23;20345;-90
2021/08/05 07:14:39;;;;;;;0.10;0.10;;;;;;;;;;6194456;23;20458;-91
2021/08/05 07:17:05;;;;;;;0.20;0.20;;;;;;;;;;6169506;23;20024;-91
2021/08/05 07:19:31;;;;;;;0.20;0.20;;;;;;;;;;6194033;23;20085;-91
2021/08/05 07:21:57;;;;;;;0.20;0.20;;;;;;;;;;6169609;23;20016;-91
2021/08/05 07:24:23;;;;;;;0.20;0.20;;;;;;;;;;6194014;23;20009;-91
2021/08/05 07:26:49;;;;;;;0.20;0.20;;;;;;;;;;6169144;23;20023;-90
2021/08/05 07:29:15;;;;;;;0.10;0.10;;;;;;;;;;6194114;23;20020;-90
2021/08/05 07:31:41;;;;;;;0.30;0.30;;;;;;;;;;6194307;23;20019;-91
2021/08/05 07:34:07;;;;;;;0.20;0.20;;;;;;;;;;6194285;23;20016;-91
2021/08/05 07:36:33;;;;;;;0.20;0.20;;;;;;;;;;6163528;23;20482;-92
2021/08/05 07:39:00;;;;;;;0.10;0.10;;;;;;;;;;6194183;23;20043;-91
2021/08/05 07:41:26;;;;;;;0.10;0.10;;;;;;;;;;6219651;23;20033;-92
2021/08/05 07:43:52;;;;;;;0.20;0.20;;;;;;;;;;6193517;23;20073;-90
2021/08/05 07:46:18;;;;;;;0.20;0.20;;;;;;;;;;6193434;23;20442;-90
2021/08/05 07:48:44;;;;;;;0.20;0.20;;;;;;;;;;6193568;23;20015;-89
2021/08/05 07:51:10;;;;;;;0.20;0.20;;;;;;;;;;6193714;23;20012;-89
2021/08/05 07:53:36;;;;;;;0.10;0.10;;;;;;;;;;6218699;23;20087;-89
2021/08/05 07:56:02;;;;;;;0.20;0.20;;;;;;;;;;6193728;23;20454;-88
2021/08/05 07:58:28;;;;;;;0.20;0.20;;;;;;;;;;6193847;23;20469;-89
2021/08/05 08:00:54;;;;;;;0.20;0.20;;;;;;;;;;6193717;23;20012;-91
2021/08/05 08:03:20;;;;;;;0.10;0.10;;;;;;;;;;6193020;23;20008;-90
2021/08/05 08:05:46;;;;;;;0.10;0.10;;;;;;;;;;6193601;23;20088;-90
2021/08/05 08:08:16;;;;;;;0.15;0.15;;;;;;;;;;6192484;23;20035;-89
2021/08/05 08:10:42;;;;;;;0.30;0.30;;;;;;;;;;6192199;23;20016;-89
2021/08/05 08:13:08;;;;;;;0.20;0.20;;;;;;;;;;6218219;23;20012;-90
2021/08/05 08:15:34;;;;;;;0.20;0.20;;;;;;;;;;6218387;23;20011;-90
2021/08/05 08:18:00;;;;;;;0.20;0.20;;;;;;;;;;6193418;23;20036;-89
2021/08/05 08:20:26;;;;;;;0.20;0.20;;;;;;;;;;6193687;23;20069;-91
2021/08/05 08:22:55;;;;;;;0.20;0.20;;;;;;;;;;6218508;23;20027;-90
2021/08/05 08:25:21;;;;;;;0.20;0.20;;;;;;;;;;6193337;23;20026;-91
2021/08/05 08:27:47;;;;;;;0.15;0.15;;;;;;;;;;6218407;23;20012;-91
2021/08/05 08:30:14;;;;;;;0.20;0.20;;;;;;;;;;6193217;23;20070;-91
2021/08/05 08:32:41;;;;;;;0.20;0.20;;;;;;;;;;6194317;23;20101;-91
2021/08/05 08:35:07;;;;;;;0.20;0.20;;;;;;;;;;6218636;23;20429;-92
2021/08/05 08:37:34;;;;;;;0.20;0.20;;;;;;;;;;6218835;23;20013;-90
2021/08/05 08:40:00;;;;;;;0.20;0.20;;;;;;;;;;6218822;23;20016;-91
2021/08/05 08:42:26;;;;;;;0.20;0.20;;;;;;;;;;6220142;23;20083;-91
2021/08/05 08:44:52;;;;;;;0.20;0.20;;;;;;;;;;6193681;23;20480;-91
2021/08/05 08:47:18;;;;;;;0.20;0.20;;;;;;;;;;6195557;23;20051;-93
2021/08/05 08:49:44;;;;;;;0.20;0.20;;;;;;;;;;6194674;23;20016;-93
2021/08/05 08:52:11;;;;;;;0.20;0.20;;;;;;;;;;6196243;23;20045;-92
2021/08/05 08:54:40;;;;;;;0.20;0.20;;;;;;;;;;6196091;23;20016;-93
2021/08/05 08:57:06;;;;;;;0.20;0.20;;;;;;;;;;6194284;23;20016;-89
2021/08/05 08:59:32;;;;;;;0.20;0.20;;;;;;;;;;6218631;23;20016;-89
2021/08/05 09:01:58;;;;;;;0.20;0.20;;;;;;;;;;6218793;23;20008;-88
2021/08/05 09:04:24;;;;;;;0.20;0.20;;;;;;;;;;6218364;23;20373;-89
2021/08/05 09:06:52;;;;;;;0.20;0.20;;;;;;;;;;6193717;23;20016;-89
2021/08/05 09:09:18;;;;;;;0.20;0.20;;;;;;;;;;6218521;23;20008;-88
2021/08/05 09:11:44;;;;;;;0.20;0.20;;;;;;;;;;6193084;23;20430;-89
2021/08/05 09:14:10;;;;;;;0.20;0.20;;;;;;;;;;6218341;23;20065;-89
2021/08/05 09:16:36;;;;;;;0.20;0.20;;;;;;;;;;6192841;23;20342;-88
2021/08/05 09:19:14;;;;;;;0.20;0.20;;;;;;;;;;6218576;23;20035;-89
2021/08/05 09:21:50;;;;;;;0.20;0.20;;;;;;;;;;6193384;23;20020;-89
2021/08/05 09:24:16;;;;;;;0.30;0.30;;;;;;;;;;6228159;23;20012;-89
2021/08/05 09:26:44;;;;;;;0.20;0.20;;;;;;;;;;6192735;23;20016;-88
2021/08/05 09:29:13;;;;;;;0.22;0.22;;;;;;;;;;6218498;23;20039;-89
2021/08/05 09:31:43;;;;;;;0.20;0.20;;;;;;;;;;6244823;23;20012;-89
2021/08/05 09:34:11;;;;;;;0.32;0.32;;;;;;;;;;6218536;23;20015;-89
2021/08/05 09:36:39;;;;;;;0.22;0.22;;;;;;;;;;6193447;23;20481;-88
2021/08/05 09:39:28;;;;;;;0.20;0.20;;;;;;;;;;6168214;23;20381;-89
2021/08/05 09:42:00;;;;;;;0.20;0.20;;;;;;;;;;6218060;23;20008;-89
2021/08/05 09:44:47;;;;;;;0.20;0.20;;;;;;;;;;6193114;23;20012;-89
2021/08/05 09:47:16;;;;;;;0.20;0.20;;;;;;;;;;6251547;23;20426;-88
2021/08/05 09:49:51;;;;;;;0.45;0.40;;;;;;;;;;6218152;23;20009;-88
2021/08/05 09:52:27;;;;;;;0.20;0.20;;;;;;;;;;6244540;23;20008;-88
2021/08/05 09:54:53;;;;;;;0.50;0.50;;;;;;;;;;6218206;23;20016;-89
2021/08/05 09:57:23;;;;;;;0.20;0.20;;;;;;;;;;6218162;23;20458;-89
2021/08/05 10:00:00;;;;;;;0.20;0.20;;;;;;;;;;6218176;23;20442;-89
2021/08/05 10:02:27;;;;;;;0.20;0.20;;;;;;;;;;6192999;23;20079;-89
2021/08/05 10:04:54;;;;;;;0.20;0.20;;;;;;;;;;6217988;23;20044;-89
2021/08/05 10:07:20;;;;;;;0.20;0.20;;;;;;;;;;6193275;23;20456;-88
2021/08/05 10:09:46;;;;;;;0.20;0.20;;;;;;;;;;6218219;23;20015;-89
2021/08/05 10:12:21;;;;;;;0.20;0.20;;;;;;;;;;6192783;23;20476;-89
2021/08/05 10:14:48;;;;;;;0.13;0.13;;;;;;;;;;6193212;23;20017;-88
2021/08/05 10:17:15;;;;;;;0.20;0.20;;;;;;;;;;6192653;23;20048;-89
2021/08/05 10:19:43;;;;;;;0.20;0.20;;;;;;;;;;6218301;23;20434;-89
2021/08/05 10:22:10;;;;;;;0.20;0.20;;;;;;;;;;6218188;23;20008;-88
2021/08/05 10:24:36;;;;;;;0.20;0.20;;;;;;;;;;6192771;23;20012;-89
2021/08/05 10:27:03;;;;;;;0.20;0.20;;;;;;;;;;6218079;23;20046;-90
2021/08/05 10:29:29;;;;;;;0.20;0.20;;;;;;;;;;6219954;23;20066;-89
2021/08/05 10:31:55;;;;;;;0.13;0.13;;;;;;;;;;6195454;23;20012;-90
2021/08/05 10:34:21;;;;;;;0.30;0.30;;;;;;;;;;6195513;23;20046;-89
2021/08/05 10:36:48;;;;;;;0.20;0.20;;;;;;;;;;6220436;23;20074;-89
2021/08/05 10:39:18;;;;;;;0.20;0.20;;;;;;;;;;6247296;23;20012;-91
2021/08/05 10:41:44;;;;;;;0.30;0.30;;;;;;;;;;6220888;23;20035;-89
2021/08/05 10:44:10;;;;;;;0.20;0.20;;;;;;;;;;6194423;23;20039;-90
2021/08/05 10:46:36;;;;;;;0.20;0.20;;;;;;;;;;6219940;23;20013;-90
2021/08/05 10:49:03;;;;;;;0.20;0.20;;;;;;;;;;6194666;23;20023;-90
2021/08/05 10:51:29;;;;;;;0.20;0.20;;;;;;;;;;6247069;23;20019;-89
2021/08/05 10:53:55;;;;;;;0.20;0.20;;;;;;;;;;6194716;23;20012;-90
2021/08/05 10:56:30;;;;;;;0.20;0.20;;;;;;;;;;6246257;23;20020;-90
2021/08/05 10:59:15;;;;;;;0.20;0.20;;;;;;;;;;6246094;23;20008;-90
2021/08/05 11:01:52;;;;;;;0.20;0.20;;;;;;;;;;6194523;23;20342;-90
2021/08/05 11:04:33;;;;;;;0.20;0.20;;;;;;;;;;6194406;23;20016;-91
2021/08/05 11:07:22;;;;;;;0.20;0.20;;;;;;;;;;6219414;23;20020;-90
2021/08/05 11:09:50;;;;;;;0.20;0.20;;;;;;;;;;6256080;23;20012;-89
2021/08/05 11:12:35;;;;;;;0.20;0.20;;;;;;;;;;6219339;23;20031;-91
2021/08/05 11:15:01;;;;;;;0.20;0.20;;;;;;;;;;6246053;23;20046;-90
2021/08/05 11:17:27;;;;;;;0.20;0.20;;;;;;;;;;6219329;23;20012;-91
2021/08/05 11:20:11;;;;;;;0.20;0.20;;;;;;;;;;6194132;23;20012;-91
2021/08/05 11:22:37;;;;;;;0.20;0.20;;;;;;;;;;6246200;23;20038;-90
2021/08/05 11:25:03;;;;;;;0.20;0.20;;;;;;;;;;6218843;23;20020;-91
2021/08/05 11:27:30;;;;;;;0.20;0.20;;;;;;;;;;6219296;23;20031;-91
2021/08/05 11:29:55;;;;;;;0.20;0.20;;;;;;;;;;6219460;23;20015;-90
2021/08/05 11:32:22;;;;;;;0.20;0.20;;;;;;;;;;6218883;23;20020;-90
2021/08/05 11:35:00;;;;;;;0.20;0.20;;;;;;;;;;6245916;23;20019;-91
2021/08/05 11:37:26;;;;;;;0.25;0.25;;;;;;;;;;6245753;23;20047;-90
2021/08/05 11:39:56;;;;;;;0.20;0.20;;;;;;;;;;6193853;23;20023;-91
2021/08/05 11:42:22;;;;;;;0.20;0.20;;;;;;;;;;6194066;23;20446;-91
2021/08/05 11:44:51;;;;;;;0.20;0.20;;;;;;;;;;6245746;23;20016;-90
2021/08/05 11:47:20;;;;;;;0.20;0.20;;;;;;;;;;6194550;23;20439;-90
2021/08/05 11:49:57;;;;;;;0.20;0.20;;;;;;;;;;6218747;23;20036;-90
2021/08/05 11:52:23;;;;;;;0.20;0.20;;;;;;;;;;6194112;23;20012;-91
2021/08/05 11:55:30;;;;;;;0.20;0.20;;;;;;;;;;6245925;23;20082;-91
2021/08/05 11:58:00;;;;;;;0.20;0.20;;;;;;;;;;6098796;23;20058;-90
2021/08/05 12:00:27;;;;;;;0.13;0.13;;;;;;;;;;6074939;23;20401;-90
2021/08/05 12:02:54;;;;;;;0.30;0.30;;;;;;;;;;6161660;23;20020;-90
2021/08/05 12:05:21;;;;;;;0.20;0.20;;;;;;;;;;6218569;23;20008;-90
2021/08/05 12:07:48;;;;;;;0.20;0.20;;;;;;;;;;6193997;23;20016;-90
2021/08/05 12:10:20;;;;;;;0.15;0.15;;;;;;;;;;6193971;23;20016;-90
2021/08/05 12:12:49;;;;;;;0.20;0.20;;;;;;;;;;6218852;23;20084;-91
2021/08/05 12:15:19;;;;;;;0.20;0.20;;;;;;;;;;6194355;23;20039;-91
2021/08/05 12:17:48;;;;;;;0.20;0.20;;;;;;;;;;6218779;23;20059;-91
2021/08/05 12:20:15;;;;;;;0.20;0.20;;;;;;;;;;6218665;23;20031;-91
2021/08/05 12:22:43;;;;;;;0.20;0.20;;;;;;;;;;6219080;23;20019;-90
2021/08/05 12:25:22;;;;;;;0.20;0.20;;;;;;;;;;6218627;23;20079;-91
2021/08/05 12:28:02;;;;;;;0.20;0.20;;;;;;;;;;6193262;23;20023;-91
2021/08/05 12:30:32;;;;;;;0.10;0.10;;;;;;;;;;6193616;23;20019;-90
2021/08/05 12:33:02;;;;;;;0.20;0.20;;;;;;;;;;6193454;23;20008;-90
2021/08/05 12:35:28;;;;;;;0.10;0.10;;;;;;;;;;6218342;23;20035;-90
2021/08/05 12:38:20;;;;;;;0.20;0.20;;;;;;;;;;6193330;23;20096;-91
2021/08/05 12:40:46;;;;;;;0.20;0.20;;;;;;;;;;6239936;23;20047;-89
2021/08/05 12:43:13;;;;;;;0.20;0.20;;;;;;;;;;6193201;23;20118;-90
2021/08/05 12:45:40;;;;;;;0.30;0.30;;;;;;;;;;6193261;23;20060;-94
2021/08/05 12:48:06;;;;;;;0.20;0.20;;;;;;;;;;6193423;23;20015;-90
2021/08/05 12:50:35;;;;;;;0.20;0.20;;;;;;;;;;6217993;23;20016;-90
2021/08/05 12:53:01;;;;;;;0.20;0.20;;;;;;;;;;6193106;23;20459;-89
2021/08/05 12:55:27;;;;;;;0.20;0.20;;;;;;;;;;6192789;23;20080;-89
2021/08/05 12:57:53;;;;;;;0.20;0.20;;;;;;;;;;6192743;23;20013;-89
2021/08/05 13:00:26;;;;;;;0.20;0.20;;;;;;;;;;6167919;23;20183;-90
2021/08/05 13:02:56;;;;;;;0.20;0.20;;;;;;;;;;6217625;23;20016;-89
2021/08/05 13:05:22;;;;;;;0.20;0.20;;;;;;;;;;6217638;23;20016;-91
2021/08/05 13:07:51;;;;;;;0.20;0.20;;;;;;;;;;6217917;23;20079;-91
2021/08/05 13:10:23;;;;;;;0.20;0.20;;;;;;;;;;6254572;23;20012;-90
2021/08/05 13:12:49;;;;;;;0.20;0.20;;;;;;;;;;6193488;23;20008;-90
2021/08/05 13:15:31;;;;;;;0.20;0.20;;;;;;;;;;6192817;23;20024;-91
2021/08/05 13:18:00;;;;;;;0.20;0.20;;;;;;;;;;6217951;23;20272;-90
2021/08/05 13:20:26;;;;;;;0.20;0.20;;;;;;;;;;6193117;23;20012;-89
2021/08/05 13:22:53;;;;;;;0.20;0.20;;;;;;;;;;6218162;23;20039;-91
2021/08/05 13:25:20;;;;;;;0.20;0.20;;;;;;;;;;6218167;23;20016;-90
2021/08/05 13:28:06;;;;;;;0.20;0.20;;;;;;;;;;6218541;23;20012;-89
2021/08/05 13:30:32;;;;;;;0.10;0.10;;;;;;;;;;6217220;23;20020;-91
2021/08/05 13:32:58;;;;;;;0.20;0.20;;;;;;;;;;6193172;23;20020;-91
2021/08/05 13:35:25;;;;;;;0.30;0.30;;;;;;;;;;6211296;22;20151;-89
2021/08/05 13:38:04;;;;;;;0.20;0.20;;;;;;;;;;6187847;23;20339;-88
2021/08/05 13:40:31;;;;;;;0.20;0.20;;;;;;;;;;6197671;23;20431;-88
2021/08/05 13:42:57;;;;;;;0.20;0.20;;;;;;;;;;6187585;23;20019;-88
2021/08/05 13:45:23;;;;;;;0.20;0.20;;;;;;;;;;6187588;23;20088;-88
2021/08/05 13:47:50;;;;;;;0.10;0.10;;;;;;;;;;6188103;23;20067;-88
2021/08/05 13:50:22;;;;;;;0.20;0.20;;;;;;;;;;6188292;23;20040;-90
2021/08/05 13:52:48;;;;;;;0.13;0.13;;;;;;;;;;6212889;23;20447;-91
2021/08/05 13:55:14;;;;;;;0.22;0.22;;;;;;;;;;6162728;23;20012;-92
2021/08/05 13:57:40;;;;;;;0.20;0.20;;;;;;;;;;6162868;23;20503;-90
2021/08/05 14:00:07;;;;;;;0.20;0.20;;;;;;;;;;6187972;23;20439;-91
2021/08/05 14:02:33;;;;;;;0.20;0.20;;;;;;;;;;6189602;23;20028;-93
2021/08/05 14:04:59;;;;;;;0.20;0.20;;;;;;;;;;6190038;23;20088;-90
2021/08/05 14:07:25;;;;;;;0.20;0.20;;;;;;;;;;6189916;23;20016;-91
2021/08/05 14:09:52;;;;;;;0.20;0.20;;;;;;;;;;6190578;23;20338;-93
2021/08/05 14:12:19;;;;;;;0.20;0.20;;;;;;;;;;6191199;23;20082;-90
2021/08/05 14:14:45;;;;;;;0.32;0.32;;;;;;;;;;6189384;23;20453;-91
2021/08/05 14:17:11;;;;;;;0.20;0.20;;;;;;;;;;6190080;23;20047;-91
2021/08/05 14:19:37;;;;;;;0.20;0.20;;;;;;;;;;6189863;23;20016;-91
2021/08/05 14:22:03;;;;;;;0.20;0.20;;;;;;;;;;6190250;23;20020;-90
2021/08/05 14:24:30;;;;;;;0.20;0.20;;;;;;;;;;6189546;23;20016;-91
2021/08/05 14:26:57;;;;;;;0.20;0.20;;;;;;;;;;6190492;23;20047;-90
2021/08/05 14:29:24;;;;;;;0.20;0.20;;;;;;;;;;6216705;23;20019;-91
2021/08/05 14:31:50;;;;;;;0.20;0.20;;;;;;;;;;6190318;23;20012;-92
2021/08/05 14:34:16;;;;;;;0.20;0.20;;;;;;;;;;6190905;23;20022;-91
2021/08/05 14:36:42;;;;;;;0.20;0.20;;;;;;;;;;6189226;23;20044;-88
2021/08/05 14:39:08;;;;;;;0.20;0.20;;;;;;;;;;6188239;23;20013;-89
2021/08/05 14:41:34;;;;;;;0.20;0.20;;;;;;;;;;6189654;23;20020;-89
2021/08/05 14:44:01;;;;;;;0.20;0.20;;;;;;;;;;6189364;23;20019;-89
2021/08/05 14:46:28;;;;;;;0.20;0.20;;;;;;;;;;6191044;23;20020;-89